createdAt,value
2023-02-03T00:01:56.737Z,44.20
2023-02-03T00:04:58.923Z,46.17
2023-02-03T00:08:01.555Z,38.08
2023-02-03T00:11:03.837Z,43.97
2023-02-03T00:14:08.063Z,44.10
2023-02-03T00:17:10.240Z,41.60
2023-02-03T00:20:12.534Z,45.58
2023-02-03T00:23:15.005Z,43.65
2023-02-03T00:26:18.210Z,45.92
2023-02-03T00:29:25.101Z,47.70
2023-02-03T00:32:27.567Z,49.55
2023-02-03T00:35:29.925Z,51.67
2023-02-03T00:38:33.749Z,48.47
2023-02-03T00:41:35.928Z,50.53
2023-02-03T00:44:38.049Z,50.40
2023-02-03T00:47:40.143Z,51.28
2023-02-03T00:50:42.313Z,51.05
2023-02-03T00:53:44.406Z,49.60
2023-02-03T00:56:46.499Z,49.40
2023-02-03T00:59:48.617Z,53.72
2023-02-03T01:02:50.751Z,51.05
2023-02-03T01:05:52.879Z,50.60
2023-02-03T01:08:55.450Z,55.38
2023-02-03T01:11:57.619Z,54.67
2023-02-03T01:14:59.824Z,52.65
2023-02-03T01:18:02.066Z,51.38
2023-02-03T01:21:09.010Z,55.75
2023-02-03T01:24:11.324Z,57.42
2023-02-03T01:27:14.644Z,52.13
2023-02-03T01:30:17.080Z,55.63
2023-02-03T01:33:19.226Z,53.47
2023-02-03T01:36:24.536Z,58.47
2023-02-03T01:39:27.423Z,57.85
2023-02-03T01:42:33.596Z,55.90
2023-02-03T01:45:35.788Z,60.28
2023-02-03T01:48:37.958Z,60.85
2023-02-03T01:51:42.383Z,63.22
2023-02-03T01:54:47.664Z,63.17
2023-02-03T01:57:58.974Z,63.75
2023-02-03T02:01:01.431Z,55.90
2023-02-03T02:04:06.675Z,58.95
2023-02-03T02:07:10.355Z,60.15
2023-02-03T02:10:14.839Z,59.85
2023-02-03T02:13:19.202Z,64.30
2023-02-03T02:16:24.821Z,57.58
2023-02-03T02:19:45.817Z,62.17
2023-02-03T02:23:21.642Z,58.70
2023-02-03T02:26:51.437Z,62.90
2023-02-03T02:30:08.661Z,60.65
2023-02-03T02:33:28.791Z,60.92
2023-02-03T02:36:43.194Z,63.95
2023-02-03T02:40:00.657Z,68.25
2023-02-03T02:43:39.841Z,52.38
2023-02-03T02:46:52.816Z,59.13
2023-02-03T02:50:09.048Z,63.72
2023-02-03T02:53:13.779Z,57.55
2023-02-03T02:56:19.712Z,64.70
2023-02-03T02:59:23.271Z,64.35
2023-02-03T03:02:36.357Z,67.53
2023-02-03T03:05:41.070Z,63.38
2023-02-03T03:08:48.172Z,64.38
2023-02-03T03:11:56.374Z,65.95
2023-02-03T03:15:03.730Z,66.82
2023-02-03T03:18:39.085Z,57.92
2023-02-03T03:21:47.101Z,55.20
2023-02-03T03:24:52.870Z,66.20
2023-02-03T03:28:00.827Z,62.38
2023-02-03T03:31:03.283Z,60.47
2023-02-03T03:34:05.577Z,65.57
2023-02-03T03:37:07.708Z,63.00
2023-02-03T03:40:21.092Z,65.18
2023-02-03T03:43:29.854Z,69.07
2023-02-03T03:46:41.625Z,61.33
2023-02-03T03:49:47.038Z,65.07
2023-02-03T03:52:50.871Z,65.57
2023-02-03T03:55:55.010Z,56.95
2023-02-03T03:58:59.759Z,64.20
2023-02-03T04:02:04.942Z,65.30
2023-02-03T04:05:08.633Z,68.35
2023-02-03T04:08:10.989Z,64.97
2023-02-03T04:11:33.127Z,65.80
2023-02-03T04:14:39.093Z,69.18
2023-02-03T04:17:41.277Z,65.40
2023-02-03T04:20:43.952Z,67.90
2023-02-03T04:23:46.235Z,65.47
2023-02-03T04:26:48.429Z,67.05
2023-02-03T04:29:50.847Z,64.53
2023-02-03T04:32:53.716Z,67.43
2023-02-03T04:35:56.008Z,66.22
2023-02-03T04:38:58.242Z,66.03
2023-02-03T04:42:00.377Z,60.35
2023-02-03T04:45:02.616Z,65.75
2023-02-03T04:48:05.034Z,69.03
2023-02-03T04:51:09.639Z,66.82
2023-02-03T04:54:12.137Z,64.28
2023-02-03T04:57:14.260Z,66.15
2023-02-03T05:00:16.563Z,59.20
2023-02-03T05:03:18.827Z,57.25
2023-02-03T05:06:29.082Z,66.80
2023-02-03T05:09:31.411Z,58.15
2023-02-03T05:12:33.623Z,63.05
2023-02-03T05:15:35.834Z,67.35
2023-02-03T05:18:37.999Z,64.57
2023-02-03T05:21:40.299Z,64.93
2023-02-03T05:24:42.407Z,64.40
2023-02-03T05:27:44.604Z,69.65
2023-02-03T05:30:46.952Z,64.25
2023-02-03T05:33:49.079Z,60.50
2023-02-03T05:36:51.253Z,70.45
2023-02-03T05:39:53.452Z,67.28
2023-02-03T05:42:55.779Z,68.80
2023-02-03T05:46:01.878Z,66.97
2023-02-03T05:49:04.168Z,67.78
2023-02-03T05:52:06.249Z,67.28
2023-02-03T05:55:08.565Z,64.95
2023-02-03T05:58:10.725Z,68.97
2023-02-03T06:01:12.869Z,72.63
2023-02-03T06:04:15.118Z,69.47
2023-02-03T06:07:17.376Z,65.40
2023-02-03T06:10:19.545Z,62.55
2023-02-03T06:13:21.697Z,59.40
2023-02-03T06:16:25.086Z,64.30
2023-02-03T06:19:27.300Z,64.47
2023-02-03T06:22:29.515Z,65.05
2023-02-03T06:25:32.807Z,57.80
2023-02-03T06:28:35.581Z,59.17
2023-02-03T06:31:37.869Z,56.78
2023-02-03T06:34:40.441Z,57.30
2023-02-03T06:37:42.563Z,55.95
2023-02-03T06:40:47.750Z,60.38
2023-02-03T06:43:49.984Z,55.40
2023-02-03T06:46:52.398Z,58.78
2023-02-03T06:49:54.598Z,60.63
2023-02-03T06:52:56.752Z,60.28
2023-02-03T06:55:58.932Z,60.33
2023-02-03T06:59:01.145Z,61.38
2023-02-03T07:02:03.291Z,59.00
2023-02-03T07:05:06.089Z,57.70
2023-02-03T07:08:08.278Z,59.25
2023-02-03T07:11:11.124Z,56.80
2023-02-03T07:14:13.257Z,55.42
2023-02-03T07:17:15.319Z,62.15
2023-02-03T07:20:17.630Z,58.25
2023-02-03T07:23:20.122Z,58.72
2023-02-03T07:26:23.228Z,58.83
2023-02-03T07:29:25.306Z,58.28
2023-02-03T07:32:27.558Z,55.47
2023-02-03T07:35:29.690Z,59.05
2023-02-03T07:38:32.259Z,59.20
2023-02-03T07:41:34.462Z,58.25
2023-02-03T07:44:36.727Z,58.75
2023-02-03T07:47:40.022Z,51.33
2023-02-03T07:50:42.126Z,55.25
2023-02-03T07:53:44.231Z,60.92
2023-02-03T07:56:46.345Z,55.03
2023-02-03T07:59:48.506Z,58.22
2023-02-03T08:02:50.898Z,55.78
2023-02-03T08:05:53.635Z,56.70
2023-02-03T08:08:55.789Z,59.05
2023-02-03T08:11:58.060Z,54.97
2023-02-03T08:15:00.253Z,51.97
2023-02-03T08:18:02.423Z,54.60
2023-02-03T08:21:05.041Z,58.03
2023-02-03T08:24:07.356Z,62.75
2023-02-03T08:27:09.491Z,56.65
2023-02-03T08:30:14.131Z,64.40
2023-02-03T08:33:16.286Z,64.07
2023-02-03T08:36:18.451Z,65.60
2023-02-03T08:39:20.628Z,62.30
2023-02-03T08:42:22.778Z,60.17
2023-02-03T08:45:24.980Z,59.92
2023-02-03T08:48:27.150Z,64.63
2023-02-03T08:51:30.142Z,65.90
2023-02-03T08:54:32.753Z,67.18
2023-02-03T08:57:38.358Z,64.20
2023-02-03T09:00:40.610Z,61.58
2023-02-03T09:03:43.016Z,62.97
2023-02-03T09:06:48.480Z,64.32
2023-02-03T09:09:50.755Z,59.97
2023-02-03T09:12:52.961Z,61.03
2023-02-03T09:15:55.223Z,61.13
2023-02-03T09:18:57.347Z,58.05
2023-02-03T09:21:59.991Z,62.45
2023-02-03T09:25:02.521Z,63.72
2023-02-03T09:28:05.061Z,64.40
2023-02-03T09:31:09.991Z,66.28
2023-02-03T09:34:12.232Z,65.55
2023-02-03T09:37:14.563Z,63.60
2023-02-03T09:40:26.312Z,63.80
2023-02-03T09:43:46.648Z,64.88
2023-02-03T09:47:01.818Z,62.83
2023-02-03T09:50:19.930Z,61.10
2023-02-03T09:53:30.945Z,64.85
2023-02-03T09:56:36.355Z,63.92
2023-02-03T09:59:40.899Z,62.42
2023-02-03T10:02:54.951Z,64.00
2023-02-03T10:06:51.601Z,64.07
2023-02-03T10:10:35.138Z,55.72
2023-02-03T10:13:52.129Z,60.95
2023-02-03T10:17:00.074Z,64.40
2023-02-03T10:20:23.396Z,62.38
2023-02-03T10:23:36.375Z,60.75
2023-02-03T10:26:40.764Z,60.00
2023-02-03T10:29:43.849Z,62.55
2023-02-03T10:32:46.229Z,62.08
2023-02-03T10:35:57.606Z,63.08
2023-02-03T10:39:27.506Z,59.78
2023-02-03T10:42:51.412Z,64.45
2023-02-03T10:45:53.595Z,61.13
2023-02-03T10:48:56.332Z,63.20
2023-02-03T10:52:05.077Z,62.72
2023-02-03T10:55:27.486Z,62.13
2023-02-03T10:58:31.432Z,56.35
2023-02-03T11:01:46.946Z,62.35
2023-02-03T11:05:08.192Z,59.25
2023-02-03T11:08:15.761Z,61.60
2023-02-03T11:11:22.365Z,63.67
2023-02-03T11:14:26.113Z,61.13
2023-02-03T11:17:30.517Z,60.85
2023-02-03T11:20:36.354Z,62.13
2023-02-03T11:23:47.697Z,60.45
2023-02-03T11:26:53.762Z,60.70
2023-02-03T11:30:30.429Z,58.47
2023-02-03T11:33:33.364Z,60.22
2023-02-03T11:36:36.011Z,59.60
2023-02-03T11:39:39.239Z,58.60
2023-02-03T11:43:03.856Z,56.70
2023-02-03T11:46:10.010Z,61.45
2023-02-03T11:49:50.839Z,58.55
2023-02-03T11:53:14.652Z,59.92
2023-02-03T11:56:49.943Z,61.50
2023-02-03T12:00:31.238Z,61.42
2023-02-03T12:03:33.376Z,60.65
2023-02-03T12:07:17.335Z,58.53
2023-02-03T12:10:31.373Z,57.90
2023-02-03T12:13:57.759Z,56.03
2023-02-03T12:17:06.157Z,58.80
2023-02-03T12:20:22.486Z,62.20
2023-02-03T12:23:27.340Z,57.38
2023-02-03T12:26:41.737Z,58.17
2023-02-03T12:29:48.329Z,59.05
2023-02-03T12:32:55.879Z,57.92
2023-02-03T12:36:21.161Z,55.63
2023-02-03T12:39:28.995Z,57.35
2023-02-03T12:42:34.003Z,51.97
2023-02-03T12:45:40.429Z,58.88
2023-02-03T12:48:50.758Z,58.38
2023-02-03T12:55:37.430Z,56.72
2023-02-03T12:58:57.608Z,54.13
2023-02-03T13:02:13.965Z,54.88
2023-02-03T13:05:32.897Z,58.47
2023-02-03T13:08:43.471Z,54.70
2023-02-03T13:12:04.514Z,58.22
2023-02-03T13:15:34.364Z,57.40
2023-02-03T13:18:40.295Z,55.90
2023-02-03T13:21:42.540Z,50.20
2023-02-03T13:24:52.713Z,51.33
2023-02-03T13:28:03.997Z,49.55
2023-02-03T13:31:09.524Z,58.10
2023-02-03T13:34:17.464Z,53.00
2023-02-03T13:37:38.369Z,52.65
2023-02-03T13:41:19.602Z,54.70
2023-02-03T13:44:29.623Z,52.58
2023-02-03T13:47:33.057Z,58.75
2023-02-03T13:50:37.285Z,52.92
2023-02-03T13:53:41.419Z,56.85
2023-02-03T13:56:59.937Z,51.65
2023-02-03T14:00:05.922Z,53.42
2023-02-03T14:03:18.817Z,57.78
2023-02-03T14:06:45.696Z,53.05
2023-02-03T14:09:48.445Z,55.55
2023-02-03T14:12:50.625Z,57.25
2023-02-03T14:16:23.932Z,57.28
2023-02-03T14:19:26.184Z,54.92
2023-02-03T14:22:29.493Z,53.08
2023-02-03T14:25:52.596Z,55.70
2023-02-03T14:28:55.041Z,50.72
2023-02-03T14:32:06.576Z,55.35
2023-02-03T14:35:18.544Z,58.65
2023-02-03T14:38:21.936Z,50.45
2023-02-03T14:41:33.746Z,57.70
2023-02-03T14:44:52.658Z,54.70
2023-02-03T14:48:30.021Z,56.17
2023-02-03T14:52:02.469Z,55.55
2023-02-03T14:55:24.853Z,54.70
2023-02-03T14:58:43.139Z,55.88
2023-02-03T15:01:45.306Z,55.30
2023-02-03T15:04:50.461Z,55.35
2023-02-03T15:07:52.723Z,60.08
2023-02-03T15:10:55.000Z,55.90
2023-02-03T15:14:24.568Z,56.22
2023-02-03T15:17:28.999Z,56.83
2023-02-03T15:20:41.589Z,57.55
2023-02-03T15:23:48.360Z,59.45
2023-02-03T15:26:57.092Z,58.55
2023-02-03T15:30:14.187Z,58.72
2023-02-03T15:33:21.431Z,58.35
2023-02-03T15:36:27.853Z,58.90
2023-02-03T15:39:46.406Z,59.47
2023-02-03T15:42:55.049Z,57.00
2023-02-03T15:46:00.991Z,59.90
2023-02-03T15:49:11.692Z,57.38
2023-02-03T15:52:23.294Z,58.50
2023-02-03T15:55:43.941Z,57.75
2023-02-03T15:58:46.603Z,58.80
2023-02-03T16:01:48.932Z,59.45
2023-02-03T16:04:51.301Z,58.45
2023-02-03T16:07:53.669Z,56.65
2023-02-03T16:10:56.188Z,61.85
2023-02-03T16:14:03.808Z,63.90
2023-02-03T16:17:07.052Z,67.25
2023-02-03T16:20:11.963Z,62.15
2023-02-03T16:23:24.019Z,67.05
2023-02-03T16:26:28.830Z,69.32
2023-02-03T16:29:55.250Z,71.65
2023-02-03T16:33:29.648Z,68.97
2023-02-03T16:36:50.496Z,66.90
2023-02-03T16:40:11.288Z,69.32
2023-02-03T16:43:33.995Z,64.25
2023-02-03T16:46:55.938Z,65.03
2023-02-03T16:50:21.542Z,63.20
2023-02-03T16:53:31.445Z,59.45
2023-02-03T16:56:33.698Z,65.25
2023-02-03T16:59:35.942Z,61.78
2023-02-03T17:02:38.176Z,65.95
2023-02-03T17:05:43.019Z,67.63
2023-02-03T17:08:45.142Z,60.92
2023-02-03T17:11:47.560Z,61.53
2023-02-03T17:14:49.622Z,65.95
2023-02-03T17:17:51.732Z,64.50
2023-02-03T17:20:53.993Z,64.15
2023-02-03T17:23:57.589Z,65.57
2023-02-03T17:26:59.717Z,61.10
2023-02-03T17:30:02.588Z,61.35
2023-02-03T17:33:13.052Z,62.03
2023-02-03T17:36:17.437Z,60.35
2023-02-03T17:55:41.026Z,53.60
2023-02-03T17:58:43.501Z,58.92
2023-02-03T18:01:46.970Z,58.03
2023-02-03T18:04:49.149Z,58.38
2023-02-03T18:07:51.294Z,60.05
2023-02-03T18:10:53.451Z,58.58
2023-02-03T18:13:56.316Z,57.10
2023-02-03T18:16:58.509Z,62.20
2023-02-03T18:20:01.557Z,57.08
2023-02-03T18:23:03.994Z,59.55
2023-02-03T18:26:08.218Z,59.80
2023-02-03T18:29:12.743Z,53.47
2023-02-03T18:32:16.344Z,55.28
2023-02-03T18:35:18.850Z,52.55
2023-02-03T18:38:21.153Z,60.83
2023-02-03T18:41:25.349Z,59.78
2023-02-03T18:44:27.721Z,59.53
2023-02-03T18:47:30.231Z,58.38
2023-02-03T18:50:32.751Z,60.15
2023-02-03T18:53:36.145Z,59.75
2023-02-03T18:56:38.467Z,55.13
2023-02-03T18:59:40.834Z,58.95
2023-02-03T19:02:43.075Z,60.75
2023-02-03T19:05:45.264Z,59.83
2023-02-03T19:08:47.618Z,58.55
2023-02-03T19:11:49.953Z,59.47
2023-02-03T19:14:52.529Z,58.97
2023-02-03T19:17:54.789Z,59.55
2023-02-03T19:20:56.897Z,55.28
2023-02-03T19:23:59.102Z,57.63
2023-02-03T19:27:01.285Z,58.20
2023-02-03T19:30:04.394Z,58.17
2023-02-03T19:33:06.560Z,58.05
2023-02-03T19:36:09.343Z,58.78
2023-02-03T19:39:11.540Z,57.25
2023-02-03T19:42:13.621Z,57.67
2023-02-03T19:45:15.981Z,58.05
2023-02-03T19:48:18.497Z,59.88
2023-02-03T19:51:20.598Z,55.75
2023-02-03T19:54:22.723Z,57.75
2023-02-03T19:57:24.906Z,57.20
2023-02-03T20:00:28.367Z,55.15
2023-02-03T20:03:30.671Z,53.65
2023-02-03T20:06:32.886Z,51.88
2023-02-03T20:09:35.052Z,59.45
2023-02-03T20:12:37.188Z,57.78
2023-02-03T20:15:39.598Z,57.38
2023-02-03T20:18:41.712Z,56.78
2023-02-03T20:21:43.948Z,56.42
2023-02-03T20:24:46.056Z,58.22
2023-02-03T20:27:48.283Z,57.05
2023-02-03T20:30:52.314Z,54.20
2023-02-03T20:33:54.569Z,54.30
2023-02-03T20:36:58.571Z,54.83
2023-02-03T20:40:00.825Z,54.03
2023-02-03T20:43:23.670Z,49.08
2023-02-03T20:46:26.011Z,49.55
2023-02-03T20:49:28.255Z,54.17
2023-02-03T20:52:30.392Z,52.53
2023-02-03T20:55:36.263Z,50.10
2023-02-03T20:58:40.268Z,55.05
2023-02-03T21:01:42.514Z,52.33
2023-02-03T21:04:57.681Z,51.17
2023-02-03T21:08:00.096Z,48.05
2023-02-03T21:11:03.317Z,49.95
2023-02-03T21:14:26.023Z,46.20
2023-02-03T21:17:28.442Z,45.47
2023-02-03T21:20:32.528Z,52.38
2023-02-03T21:23:46.840Z,51.60
2023-02-03T21:26:49.771Z,49.60
2023-02-03T21:29:55.899Z,51.45
2023-02-03T21:33:01.651Z,53.03
2023-02-03T21:36:04.047Z,48.40
2023-02-03T21:39:24.260Z,44.35
2023-02-03T21:42:45.596Z,46.78
2023-02-03T21:45:49.161Z,43.75
2023-02-03T21:48:53.648Z,48.80
2023-02-03T21:51:55.869Z,48.42
2023-02-03T21:54:58.062Z,48.55
2023-02-03T21:58:17.146Z,50.30
2023-02-03T22:01:23.829Z,44.88
2023-02-03T22:04:30.686Z,51.65
2023-02-03T22:07:32.856Z,45.45
2023-02-03T22:10:35.546Z,53.20
2023-02-03T22:13:38.081Z,48.22
2023-02-03T22:16:40.789Z,47.95
2023-02-03T22:19:42.965Z,47.15
2023-02-03T22:22:45.166Z,45.60
2023-02-03T22:25:47.988Z,46.30
2023-02-03T22:28:50.154Z,46.67
2023-02-03T22:31:52.434Z,41.63
2023-02-03T22:34:54.698Z,47.13
2023-02-03T22:37:57.354Z,45.05
2023-02-03T22:41:00.061Z,46.28
2023-02-03T22:44:03.313Z,46.78
2023-02-03T22:47:05.456Z,44.28
2023-02-03T22:50:09.765Z,44.92
2023-02-03T22:53:11.959Z,45.58
2023-02-03T22:56:14.185Z,44.53
2023-02-03T22:59:16.384Z,40.08
2023-02-03T23:02:18.582Z,42.20
2023-02-03T23:05:21.630Z,45.05
2023-02-03T23:08:23.866Z,43.40
2023-02-03T23:11:26.058Z,43.22
2023-02-03T23:14:28.346Z,41.58
2023-02-03T23:17:30.472Z,45.17
2023-02-03T23:20:33.286Z,45.58
2023-02-03T23:23:35.636Z,45.53
2023-02-03T23:26:37.880Z,47.17
2023-02-03T23:29:40.148Z,46.97
2023-02-03T23:32:42.524Z,48.53
2023-02-03T23:35:47.645Z,47.95
2023-02-03T23:38:49.938Z,48.80
2023-02-03T23:41:52.070Z,49.10
2023-02-03T23:44:54.305Z,46.78
2023-02-03T23:47:56.503Z,44.72
2023-02-03T23:50:58.755Z,47.95
2023-02-03T23:54:00.928Z,45.25
2023-02-03T23:57:04.903Z,40.90
